Kodiak — WUV9256 — position and weather

sailwx.info

Track history (hours):
 
Tides and Currents Weather Stations Pressure Air Temp Water Temp Dewpoint Dewpoint Depression Visibility Wind Speed Wind Dir Waves Ship Positions

Kodiak

Owner: KLEMZAK, JOHN, KODIAK, AK. More information available from US FCC via Universal Licensing System and Coast Guard Vessel Documentation Center.

Last reported at 2015-Oct-02 21:13 UTC. Time now 2016-Feb-09 05:46 UTC.
Position N 48°45' W 126°29'.
Warning: this ship's position is months out of date.

Length 37 m; draft 3.5 m.

Type: Fishing. MMSI: 303546000.

Date/timePositionNaut miles runAvg speedWind from/ knotsBaromVisibWave heightAir tempDewpointWater temp
2015-Oct-02 21:13N 48°45' W 126°29'3 4.1
2015-Oct-02 20:33N 48°44' W 126°25'6 6.1
2015-Oct-02 19:33N 48°41' W 126°17'6 6.1
2015-Oct-02 18:33N 48°39' W 126°09'7 7.3
2015-Oct-02 17:32N 48°35' W 125°58'8 7.7
2015-Oct-02 16:30N 48°33' W 125°47'9 8.2
2015-Oct-02 15:25N 48°31' W 125°34'71 8.7
2015-Oct-02 07:18N 48°18' W 123°49'911.7
2015-Oct-02 06:31N 48°16' W 123°36'511.3
2015-Oct-02 06:07N 48°15' W 123°29'610.4
2015-Oct-02 05:33N 48°14' W 123°20'510.3
2015-Oct-02 05:02N 48°13' W 123°12'5 9.8
2015-Oct-02 04:33N 48°13' W 123°05'25 7.4
2015-Oct-02 01:14N 47°59' W 122°35'3 7.1
2015-Oct-02 00:47N 47°57' W 122°32'2 8.2
2015-Oct-02 00:33N 47°56' W 122°29'2 8.2
2015-Oct-02 00:22N 47°54' W 122°28'7 8.5
2015-Oct-01 23:33N 47°47' W 122°26'0 8.6
2015-Oct-01 23:32N 47°47' W 122°26'7 7.2
2015-Oct-01 22:33N 47°40' W 122°24'0 5.7
2015-Oct-01 22:31N 47°40' W 122°24'1 0.7
2015-Oct-01 21:34N 47°40' W 122°23'0 3.9
2015-Oct-01 21:31N 47°40' W 122°23'0 0.3
2015-Oct-01 20:33N 47°40' W 122°23'0 0.0
2015-Oct-01 20:05N 47°40' W 122°23'0 0.0
2015-Oct-01 19:30N 47°40' W 122°23'0 0.0
2015-Oct-01 19:05N 47°40' W 122°23'0 0.0
2015-Oct-01 18:33N 47°40' W 122°23'0 0.0
2015-Oct-01 18:20N 47°40' W 122°23'0 0.0
2015-Oct-01 17:33N 47°40' W 122°23'0 0.0
2015-Oct-01 17:20N 47°40' W 122°23'0 0.0
2015-Oct-01 16:33N 47°40' W 122°23'0 0.0
2015-Oct-01 16:21N 47°40' W 122°23'0 0.0
2015-Oct-01 15:33N 47°40' W 122°23'0 0.0
2015-Oct-01 15:21N 47°40' W 122°23'0 0.0
2015-Oct-01 14:33N 47°40' W 122°23'0 0.2
2015-Oct-01 14:21N 47°40' W 122°23'0 0.1
2015-Oct-01 13:33N 47°40' W 122°23'0 0.0
2015-Oct-01 13:21N 47°40' W 122°23'0 0.0
2015-Oct-01 12:33N 47°40' W 122°23'0 0.0
2015-Oct-01 12:21N 47°40' W 122°23'0 0.0
2015-Oct-01 11:33N 47°40' W 122°23'0 0.0
2015-Oct-01 10:33N 47°40' W 122°23'0 0.0
2015-Oct-01 10:09N 47°40' W 122°23'0 0.0
2015-Oct-01 09:33N 47°40' W 122°23'0 0.0
2015-Oct-01 09:33N 47°40' W 122°23'0 0.0
2015-Oct-01 08:30N 47°40' W 122°23'0 0.0
2015-Oct-01 08:24N 47°40' W 122°23'0 0.0
2015-Oct-01 07:33N 47°40' W 122°23'0 0.0
2015-Oct-01 07:33N 47°40' W 122°23'0 0.0
2015-Oct-01 06:33N 47°40' W 122°23'0 0.0
2015-Oct-01 06:33N 47°40' W 122°23'0 0.0
2015-Oct-01 05:30N 47°40' W 122°23'0 0.0
2015-Oct-01 05:18N 47°40' W 122°23'0 0.0
2015-Oct-01 04:33N 47°40' W 122°23'0 0.0
2015-Oct-01 04:27N 47°40' W 122°23'0 0.0
2015-Oct-01 03:33N 47°40' W 122°23'0 0.0
2015-Oct-01 03:27N 47°40' W 122°23'1 1.2
2015-Oct-01 02:33N 47°40' W 122°24'0 2.8
2015-Oct-01 02:32N 47°40' W 122°24'4 4.0
2015-Oct-01 01:34N 47°44' W 122°25'0 8.2
2015-Oct-01 01:32N 47°44' W 122°25'4 3.7
2015-Oct-01 00:28N 47°40' W 122°24'0 1.5
2015-Oct-01 00:21N 47°40' W 122°24'0 0.2
2015-Sep-30 23:33N 47°40' W 122°23'0 0.0
2015-Sep-30 23:27N 47°40' W 122°23'0 0.0
2015-Sep-30 22:33N 47°40' W 122°23'0 0.0
2015-Sep-30 22:27N 47°40' W 122°23'0 0.0
2015-Sep-30 21:33N 47°40' W 122°23'0 0.0
2015-Sep-30 21:27N 47°40' W 122°23'0 0.0
2015-Sep-30 20:33N 47°40' W 122°23'0 0.0
2015-Sep-30 20:27N 47°40' W 122°23'0 0.0
2015-Sep-30 19:30N 47°40' W 122°23'0 0.0
2015-Sep-30 19:27N 47°40' W 122°23'0 0.0
2015-Sep-30 18:33N 47°40' W 122°23'0 0.0
2015-Sep-30 18:00N 47°40' W 122°23'0 0.0
2015-Sep-30 17:33N 47°40' W 122°23'0 0.0
2015-Sep-30 17:30N 47°40' W 122°23'0 0.0
2015-Sep-30 16:33N 47°40' W 122°23'0 0.1
2015-Sep-30 16:30N 47°40' W 122°23'  
Track history (hours):
 
Tides and Currents Weather Stations Pressure Air Temp Water Temp Dewpoint Dewpoint Depression Visibility Wind Speed Wind Dir Waves Ship Positions

Kodiak

Owner: KLEMZAK, JOHN, KODIAK, AK. More information available from US FCC via Universal Licensing System and Coast Guard Vessel Documentation Center.

Last reported at 2015-Oct-02 21:13 UTC. Time now 2016-Feb-09 05:46 UTC.
Position N 48°45' W 126°29'.
Warning: this ship's position is months out of date.

Length 37 m; draft 3.5 m.

Type: Fishing. MMSI: 303546000.

Date/timePositionNaut miles runAvg speedWind from/ knotsBaromVisibWave heightAir tempDewpointWater temp
2015-Oct-02 21:13N 48°45' W 126°29'3 4.1
2015-Oct-02 20:33N 48°44' W 126°25'6 6.1
2015-Oct-02 19:33N 48°41' W 126°17'6 6.1
2015-Oct-02 18:33N 48°39' W 126°09'7 7.3
2015-Oct-02 17:32N 48°35' W 125°58'8 7.7
2015-Oct-02 16:30N 48°33' W 125°47'9 8.2
2015-Oct-02 15:25N 48°31' W 125°34'71 8.7
2015-Oct-02 07:18N 48°18' W 123°49'911.7
2015-Oct-02 06:31N 48°16' W 123°36'511.3
2015-Oct-02 06:07N 48°15' W 123°29'610.4
2015-Oct-02 05:33N 48°14' W 123°20'510.3
2015-Oct-02 05:02N 48°13' W 123°12'5 9.8
2015-Oct-02 04:33N 48°13' W 123°05'25 7.4
2015-Oct-02 01:14N 47°59' W 122°35'3 7.1
2015-Oct-02 00:47N 47°57' W 122°32'2 8.2
2015-Oct-02 00:33N 47°56' W 122°29'2 8.2
2015-Oct-02 00:22N 47°54' W 122°28'7 8.5
2015-Oct-01 23:33N 47°47' W 122°26'0 8.6
2015-Oct-01 23:32N 47°47' W 122°26'7 7.2
2015-Oct-01 22:33N 47°40' W 122°24'0 5.7
2015-Oct-01 22:31N 47°40' W 122°24'1 0.7
2015-Oct-01 21:34N 47°40' W 122°23'0 3.9
2015-Oct-01 21:31N 47°40' W 122°23'0 0.3
2015-Oct-01 20:33N 47°40' W 122°23'0 0.0
2015-Oct-01 20:05N 47°40' W 122°23'0 0.0
2015-Oct-01 19:30N 47°40' W 122°23'0 0.0
2015-Oct-01 19:05N 47°40' W 122°23'0 0.0
2015-Oct-01 18:33N 47°40' W 122°23'0 0.0
2015-Oct-01 18:20N 47°40' W 122°23'0 0.0
2015-Oct-01 17:33N 47°40' W 122°23'0 0.0
2015-Oct-01 17:20N 47°40' W 122°23'0 0.0
2015-Oct-01 16:33N 47°40' W 122°23'0 0.0
2015-Oct-01 16:21N 47°40' W 122°23'0 0.0
2015-Oct-01 15:33N 47°40' W 122°23'0 0.0
2015-Oct-01 15:21N 47°40' W 122°23'0 0.0
2015-Oct-01 14:33N 47°40' W 122°23'0 0.2
2015-Oct-01 14:21N 47°40' W 122°23'0 0.1
2015-Oct-01 13:33N 47°40' W 122°23'0 0.0
2015-Oct-01 13:21N 47°40' W 122°23'0 0.0
2015-Oct-01 12:33N 47°40' W 122°23'0 0.0
2015-Oct-01 12:21N 47°40' W 122°23'0 0.0
2015-Oct-01 11:33N 47°40' W 122°23'0 0.0
2015-Oct-01 10:33N 47°40' W 122°23'0 0.0
2015-Oct-01 10:09N 47°40' W 122°23'0 0.0
2015-Oct-01 09:33N 47°40' W 122°23'0 0.0
2015-Oct-01 09:33N 47°40' W 122°23'0 0.0
2015-Oct-01 08:30N 47°40' W 122°23'0 0.0
2015-Oct-01 08:24N 47°40' W 122°23'0 0.0
2015-Oct-01 07:33N 47°40' W 122°23'0 0.0
2015-Oct-01 07:33N 47°40' W 122°23'0 0.0
2015-Oct-01 06:33N 47°40' W 122°23'0 0.0
2015-Oct-01 06:33N 47°40' W 122°23'0 0.0
2015-Oct-01 05:30N 47°40' W 122°23'0 0.0
2015-Oct-01 05:18N 47°40' W 122°23'0 0.0
2015-Oct-01 04:33N 47°40' W 122°23'0 0.0
2015-Oct-01 04:27N 47°40' W 122°23'0 0.0
2015-Oct-01 03:33N 47°40' W 122°23'0 0.0
2015-Oct-01 03:27N 47°40' W 122°23'1 1.2
2015-Oct-01 02:33N 47°40' W 122°24'0 2.8
2015-Oct-01 02:32N 47°40' W 122°24'4 4.0
2015-Oct-01 01:34N 47°44' W 122°25'0 8.2
2015-Oct-01 01:32N 47°44' W 122°25'4 3.7
2015-Oct-01 00:28N 47°40' W 122°24'0 1.5
2015-Oct-01 00:21N 47°40' W 122°24'0 0.2
2015-Sep-30 23:33N 47°40' W 122°23'0 0.0
2015-Sep-30 23:27N 47°40' W 122°23'0 0.0
2015-Sep-30 22:33N 47°40' W 122°23'0 0.0
2015-Sep-30 22:27N 47°40' W 122°23'0 0.0
2015-Sep-30 21:33N 47°40' W 122°23'0 0.0
2015-Sep-30 21:27N 47°40' W 122°23'0 0.0
2015-Sep-30 20:33N 47°40' W 122°23'0 0.0
2015-Sep-30 20:27N 47°40' W 122°23'0 0.0
2015-Sep-30 19:30N 47°40' W 122°23'0 0.0
2015-Sep-30 19:27N 47°40' W 122°23'0 0.0
2015-Sep-30 18:33N 47°40' W 122°23'0 0.0
2015-Sep-30 18:00N 47°40' W 122°23'0 0.0
2015-Sep-30 17:33N 47°40' W 122°23'0 0.0
2015-Sep-30 17:30N 47°40' W 122°23'0 0.0
2015-Sep-30 16:33N 47°40' W 122°23'0 0.1
2015-Sep-30 16:30N 47°40' W 122°23'  

Dump ship's entire track history